Time;durP1;ratioP1;P1;durP2;ratioP2;P2;SDS_P1;SDS_P2;PMS_P1;PMS_P2;Temp;Humidity;BMP_temperature;BMP_pressure;BME280_temperature;BME280_humidity;BME280_pressure;Samples;Min_cycle;Max_cycle;Signal;HPM_P1;HPM_P2
2023/12/10 00:01:20;;;;;;;12.97;9.23;;;4.40;99.90;;;;;;5009988;28;20284;-54
2023/12/10 00:03:45;;;;;;;14.43;8.30;;;4.30;99.90;;;;;;5015255;28;20298;-55
2023/12/10 00:06:11;;;;;;;11.10;9.07;;;4.40;99.90;;;;;;5014785;28;20219;-54
2023/12/10 00:08:36;;;;;;;11.63;8.97;;;4.30;99.90;;;;;;4996742;28;20212;-54
2023/12/10 00:11:02;;;;;;;11.80;9.40;;;4.30;99.90;;;;;;5016506;28;20194;-66
2023/12/10 00:13:28;;;;;;;10.90;9.13;;;4.30;99.90;;;;;;5008337;28;20198;-67
2023/12/10 00:15:53;;;;;;;9.20;7.90;;;4.20;99.90;;;;;;5008824;28;20229;-65
2023/12/10 00:18:19;;;;;;;10.93;9.03;;;4.30;99.90;;;;;;5002748;28;20237;-65
2023/12/10 00:20:44;;;;;;;10.47;8.80;;;4.40;99.90;;;;;;5015993;28;20198;-66
2023/12/10 00:23:11;;;;;;;12.63;9.27;;;4.30;99.90;;;;;;5015521;28;20400;-65
2023/12/10 00:25:39;;;;;;;13.80;9.50;;;4.30;99.90;;;;;;4998676;28;20196;-54
2023/12/10 00:28:05;;;;;;;9.70;8.67;;;4.30;99.90;;;;;;5010594;28;20222;-55
2023/12/10 00:30:30;;;;;;;10.03;8.27;;;4.30;99.90;;;;;;5022822;28;20752;-55
2023/12/10 00:32:56;;;;;;;9.07;7.77;;;4.20;99.90;;;;;;5017600;28;20202;-55
2023/12/10 00:35:21;;;;;;;15.23;10.27;;;4.20;99.90;;;;;;5011968;28;20741;-62
2023/12/10 00:37:47;;;;;;;10.70;8.40;;;4.10;99.90;;;;;;5015000;28;20195;-56
2023/12/10 00:40:15;;;;;;;10.77;8.93;;;4.20;99.90;;;;;;5016084;28;20202;-65
2023/12/10 00:42:41;;;;;;;12.07;8.63;;;4.30;99.90;;;;;;4996436;28;20206;-55
2023/12/10 00:45:08;;;;;;;10.93;8.90;;;4.30;99.90;;;;;;4989718;28;20635;-54
2023/12/10 00:47:33;;;;;;;13.13;9.27;;;4.40;99.90;;;;;;5012086;28;20242;-61
2023/12/10 00:49:59;;;;;;;10.97;8.80;;;4.30;99.90;;;;;;5022333;28;20594;-54
2023/12/10 00:52:25;;;;;;;10.90;9.43;;;4.30;99.90;;;;;;5017040;28;20234;-72
2023/12/10 00:54:50;;;;;;;12.70;8.63;;;4.30;99.90;;;;;;5002723;28;20194;-72
2023/12/10 00:57:16;;;;;;;11.07;9.10;;;4.30;99.90;;;;;;4999579;28;20202;-70
2023/12/10 00:59:41;;;;;;;11.40;8.67;;;4.20;99.90;;;;;;5004295;28;20272;-73
2023/12/10 01:02:07;;;;;;;10.60;8.93;;;4.20;99.90;;;;;;5021321;28;20798;-67
2023/12/10 01:04:32;;;;;;;10.20;8.80;;;4.30;99.90;;;;;;5027308;28;20194;-65
2023/12/10 01:06:58;;;;;;;11.03;8.87;;;4.30;99.90;;;;;;5024556;28;20218;-67
2023/12/10 01:09:23;;;;;;;10.67;8.40;;;4.20;99.90;;;;;;5022885;28;20333;-68
2023/12/10 01:11:49;;;;;;;10.93;8.27;;;4.20;99.90;;;;;;5019256;28;20204;-55
2023/12/10 01:14:15;;;;;;;10.80;9.67;;;4.10;99.90;;;;;;5016170;28;20234;-57
2023/12/10 01:16:40;;;;;;;11.40;8.57;;;4.10;99.90;;;;;;5014682;28;20188;-70
2023/12/10 01:19:06;;;;;;;10.53;8.57;;;4.20;99.90;;;;;;5016907;28;20625;-55
2023/12/10 01:21:32;;;;;;;11.57;8.70;;;4.10;99.90;;;;;;4997464;28;20202;-66
2023/12/10 01:23:59;;;;;;;9.63;8.53;;;4.20;99.90;;;;;;5016629;28;20195;-57
2023/12/10 01:26:25;;;;;;;12.17;9.17;;;4.20;99.90;;;;;;4998296;28;20272;-58
2023/12/10 01:28:51;;;;;;;10.87;9.70;;;4.20;99.90;;;;;;5022973;28;20202;-56
2023/12/10 01:31:16;;;;;;;10.87;8.77;;;4.20;99.90;;;;;;5007082;28;20205;-55
2023/12/10 01:33:42;;;;;;;9.93;7.67;;;4.20;99.90;;;;;;5025443;28;20209;-56
2023/12/10 01:36:08;;;;;;;9.67;8.23;;;4.30;99.90;;;;;;5022773;28;20748;-54
2023/12/10 01:38:34;;;;;;;12.67;9.60;;;4.20;99.90;;;;;;5006286;28;20203;-54
2023/12/10 01:41:00;;;;;;;12.07;8.83;;;4.20;99.90;;;;;;4999005;28;20205;-54
2023/12/10 01:43:28;;;;;;;10.80;8.77;;;4.20;99.90;;;;;;5014801;28;20579;-54
2023/12/10 01:45:54;;;;;;;8.63;7.73;;;4.20;99.90;;;;;;5014344;28;20243;-54
2023/12/10 01:48:23;;;;;;;12.77;9.43;;;4.20;99.90;;;;;;5021734;28;20712;-54
2023/12/10 01:50:48;;;;;;;11.17;8.73;;;4.20;99.90;;;;;;5017284;28;20199;-54
2023/12/10 01:53:15;;;;;;;9.53;8.53;;;4.20;99.90;;;;;;5000989;28;20280;-55
2023/12/10 01:55:42;;;;;;;9.87;8.73;;;4.30;99.90;;;;;;5023343;28;20996;-53
2023/12/10 01:58:09;;;;;;;13.13;9.10;;;4.30;99.90;;;;;;5027916;28;20196;-54
2023/12/10 02:00:34;;;;;;;9.70;8.30;;;4.30;99.90;;;;;;5023575;28;20229;-54
2023/12/10 02:03:02;;;;;;;11.67;8.90;;;4.20;99.90;;;;;;5005000;28;20202;-54
2023/12/10 02:05:28;;;;;;;10.03;7.50;;;4.20;99.90;;;;;;5023965;28;20202;-54
2023/12/10 02:07:54;;;;;;;10.53;8.87;;;4.10;99.90;;;;;;5018499;28;20248;-54
2023/12/10 02:10:20;;;;;;;10.00;7.97;;;4.10;99.90;;;;;;5020481;28;20253;-54
2023/12/10 02:12:46;;;;;;;8.57;7.53;;;4.10;99.90;;;;;;5011647;28;20210;-54
2023/12/10 02:15:16;;;;;;;8.93;7.67;;;4.20;99.90;;;;;;4998487;28;20655;-53
2023/12/10 02:17:42;;;;;;;8.50;6.97;;;4.10;99.90;;;;;;5013358;28;20278;-53
2023/12/10 02:20:12;;;;;;;9.10;7.47;;;4.20;99.90;;;;;;5016987;28;20278;-55
2023/12/10 02:22:51;;;;;;;9.07;7.57;;;4.20;99.90;;;;;;5012499;28;20672;-57
2023/12/10 02:25:22;;;;;;;7.93;7.13;;;4.20;99.90;;;;;;5016474;28;20206;-55
2023/12/10 02:27:47;;;;;;;8.63;6.90;;;4.20;99.90;;;;;;5010793;28;20211;-54
2023/12/10 02:30:13;;;;;;;8.50;7.40;;;4.20;99.90;;;;;;5015803;28;20565;-55
2023/12/10 02:32:39;;;;;;;8.73;7.83;;;4.30;99.90;;;;;;5023719;28;20231;-53
2023/12/10 02:35:05;;;;;;;8.33;7.13;;;4.30;99.90;;;;;;5020125;28;20605;-54
2023/12/10 02:37:31;;;;;;;10.47;6.83;;;4.30;99.90;;;;;;5017541;28;20700;-55
2023/12/10 02:39:56;;;;;;;9.23;6.97;;;4.30;99.90;;;;;;5016918;28;20191;-55
2023/12/10 02:42:22;;;;;;;7.63;6.83;;;4.30;99.90;;;;;;5018846;28;20206;-55
2023/12/10 02:44:48;;;;;;;7.53;6.57;;;4.20;99.90;;;;;;4990612;28;20803;-55
2023/12/10 02:47:13;;;;;;;7.43;6.43;;;4.30;99.90;;;;;;5013589;28;20239;-52
2023/12/10 02:49:39;;;;;;;7.53;6.70;;;4.30;99.90;;;;;;5023524;28;20678;-53
2023/12/10 02:52:05;;;;;;;6.50;5.87;;;4.20;99.90;;;;;;5016056;28;20211;-54
2023/12/10 02:54:30;;;;;;;7.10;6.43;;;4.30;99.90;;;;;;5017259;28;20191;-54
2023/12/10 02:56:56;;;;;;;7.33;6.63;;;4.10;99.90;;;;;;5020188;28;20206;-54
2023/12/10 02:59:21;;;;;;;7.53;6.43;;;4.10;99.90;;;;;;5013652;28;20233;-54
2023/12/10 03:01:47;;;;;;;7.17;6.30;;;4.00;99.90;;;;;;5019036;28;20214;-54
2023/12/10 03:04:13;;;;;;;7.00;6.13;;;3.90;99.90;;;;;;5014593;28;20204;-54
2023/12/10 03:06:38;;;;;;;8.07;6.77;;;3.90;99.90;;;;;;5019033;28;20229;-53
2023/12/10 03:09:04;;;;;;;7.03;6.33;;;3.90;99.90;;;;;;5017340;28;20923;-54
2023/12/10 03:11:30;;;;;;;7.50;6.80;;;3.90;99.90;;;;;;5014175;28;20191;-54
2023/12/10 03:13:55;;;;;;;9.03;7.57;;;4.00;99.90;;;;;;5010359;28;20199;-55
2023/12/10 03:16:21;;;;;;;11.03;7.20;;;4.00;99.90;;;;;;5012713;28;20280;-53
2023/12/10 03:18:47;;;;;;;7.57;6.77;;;4.10;99.90;;;;;;5013942;28;20196;-53
2023/12/10 03:21:12;;;;;;;9.70;7.70;;;4.10;99.90;;;;;;5013563;28;20222;-53
2023/12/10 03:23:38;;;;;;;9.67;6.90;;;4.10;99.90;;;;;;4994084;28;20206;-55
2023/12/10 03:26:04;;;;;;;7.43;6.63;;;4.00;99.90;;;;;;5023792;28;20241;-54
2023/12/10 03:28:29;;;;;;;9.07;7.17;;;4.00;99.90;;;;;;5017356;28;20202;-53
2023/12/10 03:30:55;;;;;;;10.20;7.83;;;4.00;99.90;;;;;;5019323;28;20218;-55
2023/12/10 03:33:20;;;;;;;9.37;7.73;;;4.00;99.90;;;;;;5017892;28;20187;-54
2023/12/10 03:35:46;;;;;;;9.37;7.73;;;4.00;99.90;;;;;;5013997;28;20196;-54
2023/12/10 03:38:11;;;;;;;8.17;7.37;;;4.00;99.90;;;;;;5019351;28;20205;-54
2023/12/10 03:40:38;;;;;;;7.33;6.63;;;4.00;99.90;;;;;;4994836;28;20264;-54
2023/12/10 03:43:03;;;;;;;8.87;6.67;;;4.00;99.90;;;;;;4993291;28;20696;-61
2023/12/10 03:45:29;;;;;;;10.73;8.07;;;4.00;99.90;;;;;;5013658;28;20239;-55
2023/12/10 03:47:54;;;;;;;10.37;8.73;;;4.00;99.90;;;;;;5019644;28;20268;-54
2023/12/10 03:50:20;;;;;;;8.40;7.50;;;4.00;99.90;;;;;;5021352;28;20295;-54
2023/12/10 03:52:45;;;;;;;8.97;8.00;;;3.90;99.90;;;;;;4994268;28;21237;-64
2023/12/10 03:55:11;;;;;;;8.07;7.27;;;4.00;99.90;;;;;;5019417;28;20669;-70
2023/12/10 03:57:36;;;;;;;9.10;7.47;;;3.90;99.90;;;;;;4999490;28;20195;-63
2023/12/10 04:00:04;;;;;;;8.80;7.90;;;4.00;99.90;;;;;;4999964;28;20202;-54
2023/12/10 04:02:30;;;;;;;8.20;7.40;;;4.00;99.90;;;;;;5019475;28;20213;-55
2023/12/10 04:04:56;;;;;;;8.27;7.43;;;4.00;99.90;;;;;;5016096;28;20996;-55
2023/12/10 04:07:21;;;;;;;9.23;7.67;;;4.00;99.90;;;;;;5021261;28;20726;-55
2023/12/10 04:09:47;;;;;;;9.70;8.60;;;4.10;99.90;;;;;;5015260;28;20683;-55
2023/12/10 04:12:12;;;;;;;9.17;8.17;;;4.10;99.90;;;;;;5013696;28;20824;-55
2023/12/10 04:14:37;;;;;;;10.27;8.87;;;4.00;99.90;;;;;;4990829;28;20195;-55
2023/12/10 04:17:04;;;;;;;8.73;7.83;;;4.10;99.90;;;;;;5011778;28;21006;-55
2023/12/10 04:19:30;;;;;;;8.70;7.40;;;4.10;99.90;;;;;;5015792;28;20249;-55
2023/12/10 04:21:56;;;;;;;8.07;7.27;;;4.00;99.90;;;;;;5017183;28;20202;-55
2023/12/10 04:24:21;;;;;;;7.83;6.87;;;4.10;99.90;;;;;;5022163;28;20203;-55
2023/12/10 04:26:47;;;;;;;9.67;7.67;;;4.10;99.90;;;;;;5020982;28;20219;-54
2023/12/10 04:29:12;;;;;;;8.60;7.67;;;4.10;99.90;;;;;;5017396;28;20226;-65
2023/12/10 04:31:38;;;;;;;8.23;7.43;;;4.30;99.90;;;;;;5018428;28;20257;-55
2023/12/10 04:34:03;;;;;;;10.27;8.40;;;4.20;99.90;;;;;;5023061;28;20199;-55
2023/12/10 04:36:29;;;;;;;8.53;7.27;;;4.30;99.90;;;;;;5023911;28;20630;-54
2023/12/10 04:38:55;;;;;;;9.53;7.40;;;4.20;99.90;;;;;;5025710;28;20283;-55
2023/12/10 04:41:21;;;;;;;9.93;7.97;;;4.20;99.90;;;;;;5020702;28;20201;-56
2023/12/10 04:43:48;;;;;;;7.23;6.53;;;4.20;99.90;;;;;;5016312;28;20203;-55
2023/12/10 04:46:14;;;;;;;8.87;7.53;;;4.20;99.90;;;;;;5015849;28;20712;-55
2023/12/10 04:48:40;;;;;;;8.73;7.10;;;4.10;99.90;;;;;;4997788;28;20636;-55
2023/12/10 04:51:06;;;;;;;8.67;7.73;;;4.10;99.90;;;;;;5025709;28;20199;-54
2023/12/10 04:53:32;;;;;;;8.80;7.97;;;4.10;99.90;;;;;;5027187;28;20199;-55
2023/12/10 04:55:58;;;;;;;8.97;8.00;;;4.30;99.90;;;;;;5020169;28;20198;-55
2023/12/10 04:58:23;;;;;;;9.60;8.50;;;4.30;99.90;;;;;;5021257;28;20872;-54
2023/12/10 05:00:49;;;;;;;10.37;8.00;;;4.40;99.90;;;;;;5023225;28;20273;-54
2023/12/10 05:03:14;;;;;;;8.87;7.80;;;4.40;99.90;;;;;;5022218;28;20215;-54
2023/12/10 05:05:40;;;;;;;9.10;8.20;;;4.40;99.90;;;;;;5016909;28;20203;-53
2023/12/10 05:08:06;;;;;;;9.00;7.77;;;4.40;99.90;;;;;;5015168;28;20199;-54
2023/12/10 05:10:31;;;;;;;9.97;8.30;;;4.40;99.90;;;;;;5018151;28;20668;-54
2023/12/10 05:12:57;;;;;;;9.83;8.87;;;4.40;99.90;;;;;;5014988;28;20233;-54
2023/12/10 05:15:22;;;;;;;8.97;8.07;;;4.30;99.90;;;;;;5021586;28;20218;-55
2023/12/10 05:17:48;;;;;;;11.40;8.93;;;4.30;99.90;;;;;;5026806;28;20202;-57
2023/12/10 05:20:13;;;;;;;11.33;8.77;;;4.40;99.90;;;;;;4999263;28;20217;-53
2023/12/10 05:22:39;;;;;;;10.83;8.57;;;4.40;99.90;;;;;;5016880;28;20203;-53
2023/12/10 05:25:04;;;;;;;10.60;9.00;;;4.40;99.90;;;;;;5019509;28;20207;-55
2023/12/10 05:27:32;;;;;;;11.17;8.83;;;4.50;99.90;;;;;;5006298;28;20222;-53
2023/12/10 05:29:59;;;;;;;10.90;8.97;;;4.50;99.90;;;;;;5020072;28;20228;-54
2023/12/10 05:32:25;;;;;;;9.20;8.30;;;4.60;99.90;;;;;;5019906;28;20203;-54
2023/12/10 05:34:51;;;;;;;12.33;9.30;;;4.50;99.90;;;;;;5022249;28;20240;-55
2023/12/10 05:37:16;;;;;;;10.27;9.10;;;4.60;99.90;;;;;;5022928;28;20199;-55
2023/12/10 05:39:42;;;;;;;14.93;9.60;;;4.60;99.90;;;;;;5022023;28;20207;-55
2023/12/10 05:42:07;;;;;;;11.17;9.10;;;4.60;99.90;;;;;;5016474;28;20207;-55
2023/12/10 05:44:33;;;;;;;10.57;8.47;;;4.70;99.90;;;;;;4996461;28;20203;-54
2023/12/10 05:46:58;;;;;;;11.50;9.20;;;4.70;99.90;;;;;;5014736;28;20266;-54
2023/12/10 05:49:24;;;;;;;10.03;9.03;;;4.80;99.90;;;;;;5018795;28;20198;-55
2023/12/10 05:51:49;;;;;;;9.97;8.83;;;4.80;99.90;;;;;;5014792;28;20211;-54
2023/12/10 05:54:15;;;;;;;10.73;9.10;;;4.90;99.90;;;;;;5015573;28;20498;-54
2023/12/10 05:56:41;;;;;;;13.10;9.27;;;4.90;99.90;;;;;;5021509;28;20214;-54
2023/12/10 05:59:07;;;;;;;10.47;9.13;;;4.90;99.90;;;;;;5013326;28;20719;-55
2023/12/10 06:01:32;;;;;;;8.57;7.67;;;5.00;99.90;;;;;;5016174;28;20208;-55
2023/12/10 06:03:58;;;;;;;11.77;9.47;;;5.00;99.90;;;;;;5017699;28;20219;-55
2023/12/10 06:06:24;;;;;;;11.53;9.20;;;5.00;99.90;;;;;;5028479;28;20743;-55
2023/12/10 06:08:49;;;;;;;10.83;8.80;;;5.10;99.90;;;;;;5019281;28;20210;-55
2023/12/10 06:11:15;;;;;;;10.77;9.53;;;5.00;99.90;;;;;;5013382;28;20199;-55
2023/12/10 06:13:40;;;;;;;9.70;8.70;;;5.00;99.90;;;;;;5021404;28;20198;-55
2023/12/10 06:16:07;;;;;;;13.27;10.03;;;5.00;99.90;;;;;;5018820;28;20261;-54
2023/12/10 06:18:32;;;;;;;11.30;10.17;;;5.10;99.90;;;;;;5014342;28;20191;-53
2023/12/10 06:20:58;;;;;;;13.37;9.13;;;5.00;99.90;;;;;;5019583;28;20198;-54
2023/12/10 06:23:23;;;;;;;10.60;9.50;;;5.00;99.90;;;;;;5003120;28;20201;-54
2023/12/10 06:25:50;;;;;;;12.03;9.80;;;5.10;99.90;;;;;;5020487;28;20207;-64
2023/12/10 06:28:16;;;;;;;11.37;10.07;;;5.00;99.90;;;;;;5016846;28;20188;-55
2023/12/10 06:30:41;;;;;;;11.23;8.97;;;5.00;99.90;;;;;;5015861;28;20942;-55
2023/12/10 06:33:07;;;;;;;12.03;9.40;;;5.00;99.90;;;;;;5020332;28;20202;-55
2023/12/10 06:35:32;;;;;;;11.37;9.50;;;5.10;99.90;;;;;;5013641;28;20201;-54
2023/12/10 06:37:58;;;;;;;10.47;8.73;;;5.10;99.90;;;;;;5018049;28;20199;-55
2023/12/10 06:40:24;;;;;;;10.97;8.50;;;5.10;99.90;;;;;;5017161;28;20203;-55
2023/12/10 06:42:49;;;;;;;10.53;8.50;;;5.00;99.90;;;;;;5016698;28;20213;-55
2023/12/10 06:45:15;;;;;;;12.03;9.50;;;5.10;99.90;;;;;;5018477;28;20351;-54
2023/12/10 06:47:40;;;;;;;9.93;8.37;;;5.10;99.90;;;;;;5020480;28;20246;-54
2023/12/10 06:50:07;;;;;;;12.83;10.20;;;5.00;99.90;;;;;;5003166;28;20191;-55
2023/12/10 06:52:32;;;;;;;11.00;9.10;;;5.00;99.90;;;;;;4996435;28;20261;-55
2023/12/10 06:54:58;;;;;;;14.37;9.40;;;5.10;99.90;;;;;;5023075;28;20802;-55
2023/12/10 06:57:23;;;;;;;13.80;10.27;;;5.00;99.90;;;;;;5002128;28;20195;-55
2023/12/10 06:59:49;;;;;;;14.40;10.13;;;5.00;99.90;;;;;;5019588;28;20999;-54
2023/12/10 07:02:14;;;;;;;12.73;8.90;;;5.10;99.90;;;;;;5020705;28;20199;-55
2023/12/10 07:04:40;;;;;;;11.90;9.90;;;5.10;99.90;;;;;;5020626;28;20301;-54
2023/12/10 07:07:05;;;;;;;9.43;8.13;;;5.00;99.90;;;;;;5013285;28;20219;-54
2023/12/10 07:09:31;;;;;;;12.17;8.97;;;5.00;99.90;;;;;;4997652;28;20279;-54
2023/12/10 07:11:56;;;;;;;12.93;9.57;;;5.00;99.90;;;;;;5017793;28;20548;-54
2023/12/10 07:14:22;;;;;;;13.70;9.30;;;5.10;99.90;;;;;;5015488;28;20195;-54
2023/12/10 07:16:47;;;;;;;13.30;10.10;;;5.10;99.90;;;;;;5012934;28;20238;-55
2023/12/10 07:19:13;;;;;;;15.03;10.77;;;5.10;99.90;;;;;;4995778;28;20195;-55
2023/12/10 07:21:38;;;;;;;12.27;8.80;;;5.10;99.90;;;;;;5011576;28;20625;-55
2023/12/10 07:24:05;;;;;;;10.87;9.00;;;5.10;99.90;;;;;;5021605;28;20229;-55
2023/12/10 07:26:30;;;;;;;12.63;8.90;;;5.20;99.90;;;;;;5014447;28;20289;-55
2023/12/10 07:28:56;;;;;;;12.33;9.03;;;5.10;99.90;;;;;;5013820;28;20211;-56
2023/12/10 07:31:21;;;;;;;12.13;8.70;;;5.20;99.90;;;;;;5017950;28;20768;-56
2023/12/10 07:33:47;;;;;;;15.50;8.50;;;5.20;99.90;;;;;;5014129;28;20206;-55
2023/12/10 07:36:14;;;;;;;10.23;9.13;;;5.30;99.90;;;;;;5017304;28;20202;-55
2023/12/10 07:38:40;;;;;;;12.27;8.80;;;5.40;99.90;;;;;;5015924;28;20202;-55
2023/12/10 07:41:05;;;;;;;11.90;8.83;;;5.50;99.90;;;;;;5011927;28;20194;-55
2023/12/10 07:43:31;;;;;;;12.33;9.17;;;5.20;99.90;;;;;;5014101;28;20995;-55
2023/12/10 07:45:57;;;;;;;11.43;7.77;;;5.20;99.90;;;;;;4994162;28;20203;-55
2023/12/10 07:48:22;;;;;;;9.90;8.13;;;5.40;99.90;;;;;;5011434;28;20227;-55
2023/12/10 07:50:48;;;;;;;13.20;9.23;;;5.40;99.90;;;;;;5016060;28;20709;-54
2023/12/10 07:53:14;;;;;;;11.53;9.23;;;5.50;99.90;;;;;;5004468;28;20372;-55
2023/12/10 07:55:39;;;;;;;13.87;8.63;;;5.50;99.90;;;;;;5024190;28;20294;-57
2023/12/10 07:58:05;;;;;;;8.37;7.13;;;5.60;99.90;;;;;;5022160;28;20260;-55
2023/12/10 08:00:31;;;;;;;13.17;7.37;;;5.60;99.90;;;;;;5022461;28;20226;-54
2023/12/10 08:02:57;;;;;;;10.00;7.60;;;5.60;99.90;;;;;;5024701;28;20329;-56
2023/12/10 08:05:22;;;;;;;9.83;7.27;;;5.60;99.90;;;;;;5020709;28;20199;-55
2023/12/10 08:07:48;;;;;;;11.37;7.33;;;5.70;99.90;;;;;;5026580;28;20353;-65
2023/12/10 08:10:13;;;;;;;9.67;6.40;;;5.70;99.90;;;;;;5024163;28;20203;-66
2023/12/10 08:12:39;;;;;;;10.37;6.87;;;5.70;99.90;;;;;;5014787;28;20199;-54
2023/12/10 08:15:05;;;;;;;13.83;7.20;;;5.70;99.90;;;;;;5000477;28;20196;-55
2023/12/10 08:17:31;;;;;;;10.37;7.17;;;5.80;99.90;;;;;;5023478;28;20799;-56
2023/12/10 08:19:57;;;;;;;8.30;6.97;;;5.70;99.90;;;;;;5025807;28;20191;-54
2023/12/10 08:22:22;;;;;;;13.00;6.90;;;5.70;99.90;;;;;;5021167;28;20239;-54
2023/12/10 08:24:48;;;;;;;10.30;6.03;;;5.80;99.90;;;;;;5012290;28;20289;-57
2023/12/10 08:27:13;;;;;;;10.33;6.37;;;5.90;99.90;;;;;;5013180;28;20259;-53
2023/12/10 08:29:39;;;;;;;10.67;5.93;;;5.90;99.90;;;;;;5000243;28;20278;-56
2023/12/10 08:32:05;;;;;;;8.87;5.40;;;6.00;99.90;;;;;;5015779;28;20207;-53
2023/12/10 08:34:30;;;;;;;9.97;5.97;;;6.00;99.90;;;;;;5011797;28;20200;-53
2023/12/10 08:36:56;;;;;;;9.40;5.37;;;6.10;99.90;;;;;;5018851;28;20631;-54
2023/12/10 08:39:21;;;;;;;14.20;6.27;;;6.10;99.90;;;;;;5017034;28;20207;-54
2023/12/10 08:41:47;;;;;;;11.97;5.67;;;6.10;99.90;;;;;;5019369;28;20509;-55
2023/12/10 08:44:12;;;;;;;9.10;4.47;;;6.20;99.90;;;;;;5013129;28;20207;-54
2023/12/10 08:46:38;;;;;;;12.73;6.63;;;6.30;99.90;;;;;;5014650;28;20302;-54
2023/12/10 08:49:03;;;;;;;14.23;6.70;;;6.40;99.90;;;;;;5011881;28;20211;-55
2023/12/10 08:51:29;;;;;;;14.87;5.60;;;6.40;99.90;;;;;;5021664;28;20234;-64
2023/12/10 08:53:55;;;;;;;7.60;4.10;;;6.50;99.90;;;;;;5015412;28;20200;-56
2023/12/10 08:56:21;;;;;;;6.27;4.37;;;6.50;99.90;;;;;;5020285;28;20192;-56
2023/12/10 08:58:47;;;;;;;9.73;4.23;;;6.60;99.90;;;;;;5017649;28;20277;-55
2023/12/10 09:01:12;;;;;;;6.27;3.53;;;6.70;99.90;;;;;;5014638;28;20673;-55
2023/12/10 09:03:42;;;;;;;10.33;5.13;;;6.80;99.90;;;;;;5022926;28;20779;-72
2023/12/10 09:06:08;;;;;;;9.13;4.07;;;6.80;99.90;;;;;;5025947;28;20203;-54
2023/12/10 09:08:34;;;;;;;13.33;5.00;;;6.80;99.90;;;;;;5026764;28;20703;-53
2023/12/10 09:11:03;;;;;;;6.27;3.60;;;7.00;99.90;;;;;;5019213;28;20199;-53
2023/12/10 09:13:30;;;;;;;7.03;3.60;;;7.00;99.90;;;;;;5012437;28;20199;-60
2023/12/10 09:15:55;;;;;;;8.70;4.03;;;7.10;99.90;;;;;;4999775;28;20234;-63
2023/12/10 09:18:20;;;;;;;9.97;4.20;;;7.10;99.90;;;;;;5014541;28;20223;-56
2023/12/10 09:20:46;;;;;;;10.03;3.50;;;7.30;99.90;;;;;;5019988;28;20214;-65
2023/12/10 09:23:11;;;;;;;12.40;4.03;;;7.30;99.90;;;;;;5016116;28;20267;-69
2023/12/10 09:25:37;;;;;;;11.50;4.73;;;7.30;99.90;;;;;;5021667;28;20202;-66
2023/12/10 09:28:02;;;;;;;9.37;4.00;;;7.30;99.90;;;;;;5022988;28;20219;-68
2023/12/10 09:30:28;;;;;;;11.17;4.07;;;7.30;99.90;;;;;;5018431;28;20203;-68
2023/12/10 09:32:53;;;;;;;11.23;4.80;;;7.30;99.90;;;;;;5015420;28;20360;-56
2023/12/10 09:35:19;;;;;;;8.70;3.73;;;7.40;99.90;;;;;;5024454;28;20888;-55
2023/12/10 09:37:44;;;;;;;13.30;3.53;;;7.40;99.90;;;;;;5018236;28;20203;-63
2023/12/10 09:40:10;;;;;;;16.17;4.27;;;7.50;99.90;;;;;;5025169;28;20953;-55
2023/12/10 09:42:36;;;;;;;14.80;3.67;;;7.50;99.90;;;;;;5012099;28;20196;-55
2023/12/10 09:45:02;;;;;;;13.43;3.67;;;7.50;99.90;;;;;;5005022;28;20547;-56
2023/12/10 09:47:29;;;;;;;17.57;3.53;;;7.60;99.90;;;;;;5012286;28;21102;-55
2023/12/10 09:49:57;;;;;;;14.20;3.50;;;7.60;99.90;;;;;;5018472;28;20194;-55
2023/12/10 09:52:24;;;;;;;11.97;3.77;;;7.70;99.90;;;;;;5008495;28;20207;-54
2023/12/10 09:54:52;;;;;;;16.80;4.37;;;7.70;99.90;;;;;;5014757;28;20200;-55
2023/12/10 09:57:18;;;;;;;10.57;3.53;;;7.70;99.90;;;;;;5019810;28;20202;-57
2023/12/10 09:59:46;;;;;;;17.23;4.37;;;7.80;99.90;;;;;;5003997;28;20199;-54
2023/12/10 10:02:12;;;;;;;20.83;3.43;;;7.80;99.90;;;;;;5023745;28;20257;-54
2023/12/10 10:04:41;;;;;;;16.03;4.80;;;7.80;99.90;;;;;;5024903;28;20199;-54
2023/12/10 10:07:07;;;;;;;13.00;3.53;;;7.80;99.90;;;;;;5013739;28;20226;-54
2023/12/10 10:09:39;;;;;;;11.80;3.60;;;7.90;99.90;;;;;;5017477;28;20200;-54
2023/12/10 10:12:05;;;;;;;14.13;3.73;;;7.80;99.90;;;;;;5015073;28;20261;-54
2023/12/10 10:14:31;;;;;;;15.77;3.57;;;7.90;99.90;;;;;;5014638;28;20203;-54
2023/12/10 10:16:56;;;;;;;10.53;2.47;;;7.90;99.90;;;;;;5012129;28;20199;-55
2023/12/10 10:19:25;;;;;;;12.90;3.70;;;7.90;99.90;;;;;;5013478;28;20235;-55
2023/12/10 10:21:50;;;;;;;8.93;3.03;;;7.90;99.90;;;;;;5019203;28;20624;-55
2023/12/10 10:24:16;;;;;;;11.33;3.60;;;7.80;99.90;;;;;;5013387;28;20530;-56
2023/12/10 10:26:43;;;;;;;9.50;3.10;;;7.80;99.90;;;;;;5015942;28;20544;-59
2023/12/10 10:29:08;;;;;;;12.10;3.83;;;7.80;99.90;;;;;;5019293;28;20718;-55
2023/12/10 10:31:34;;;;;;;13.67;3.60;;;7.80;99.90;;;;;;5019502;28;20199;-64
2023/12/10 10:34:02;;;;;;;9.70;3.37;;;7.70;99.90;;;;;;5020223;28;20202;-66
2023/12/10 10:36:28;;;;;;;11.17;3.40;;;7.80;99.90;;;;;;5014866;28;20207;-65
2023/12/10 10:38:55;;;;;;;16.50;4.67;;;7.80;99.90;;;;;;5022037;28;20203;-60
2023/12/10 10:41:21;;;;;;;8.80;2.53;;;7.80;99.90;;;;;;5011393;28;20183;-60
2023/12/10 10:43:47;;;;;;;11.23;3.93;;;7.80;99.90;;;;;;4994213;28;20200;-55
2023/12/10 10:46:13;;;;;;;10.70;2.70;;;7.80;99.90;;;;;;4995142;28;20590;-56
2023/12/10 10:48:40;;;;;;;10.07;4.47;;;7.90;99.90;;;;;;5012577;28;20222;-55
2023/12/10 10:51:06;;;;;;;14.63;3.03;;;7.80;99.90;;;;;;5013912;28;20721;-55
2023/12/10 10:53:35;;;;;;;15.27;4.07;;;7.80;99.90;;;;;;4995336;28;20207;-61
2023/12/10 10:56:02;;;;;;;14.50;4.07;;;7.80;99.90;;;;;;5010080;28;20294;-64
2023/12/10 10:58:29;;;;;;;18.63;3.57;;;7.80;99.90;;;;;;5018152;28;20207;-55
2023/12/10 11:00:56;;;;;;;14.33;3.70;;;7.80;99.90;;;;;;5019801;28;20195;-55
2023/12/10 11:03:24;;;;;;;13.37;3.77;;;7.80;99.90;;;;;;5019085;28;20222;-73
2023/12/10 11:05:50;;;;;;;11.97;2.80;;;7.90;99.90;;;;;;5012629;28;20290;-55
2023/12/10 11:08:16;;;;;;;19.87;3.57;;;7.90;99.90;;;;;;5012588;28;20274;-54
2023/12/10 11:10:50;;;;;;;12.17;3.63;;;7.90;99.90;;;;;;4992747;28;20211;-54
2023/12/10 11:13:41;;;;;;;15.00;3.50;;;7.90;99.90;;;;;;5016919;28;20538;-69
2023/12/10 11:16:07;;;;;;;11.87;3.67;;;7.90;99.90;;;;;;4989136;28;20327;-56
2023/12/10 11:18:52;;;;;;;16.50;3.53;;;8.00;99.90;;;;;;5017105;28;20309;-56
2023/12/10 11:21:18;;;;;;;14.70;3.53;;;8.00;99.90;;;;;;5014746;28;20245;-54
2023/12/10 11:23:44;;;;;;;27.47;13.27;;;8.00;99.90;;;;;;4996533;28;20199;-55
2023/12/10 11:26:10;;;;;;;32.10;18.87;;;8.00;99.90;;;;;;5015354;28;20689;-55
2023/12/10 11:28:36;;;;;;;28.20;11.87;;;8.10;99.90;;;;;;5015156;28;20630;-54
2023/12/10 11:31:02;;;;;;;12.27;3.50;;;8.10;99.90;;;;;;5011829;28;20740;-56
2023/12/10 11:33:28;;;;;;;14.20;3.50;;;8.00;99.90;;;;;;5012064;28;20552;-55
2023/12/10 11:35:57;;;;;;;13.53;3.07;;;8.00;99.90;;;;;;5013864;28;20762;-56
2023/12/10 11:38:23;;;;;;;11.97;4.03;;;8.00;99.90;;;;;;5014143;28;20203;-55
2023/12/10 11:40:49;;;;;;;16.23;4.60;;;8.00;99.90;;;;;;5008472;28;20210;-61
2023/12/10 11:43:15;;;;;;;12.83;3.47;;;8.10;99.90;;;;;;5014144;28;20198;-55
2023/12/10 11:45:41;;;;;;;8.70;4.20;;;8.00;99.90;;;;;;5014465;28;20187;-55
2023/12/10 11:48:06;;;;;;;15.57;4.07;;;8.00;99.90;;;;;;4976240;28;1115472;-54
2023/12/10 11:50:36;;;;;;;9.07;2.87;;;8.00;99.90;;;;;;4997529;28;20770;-60
2023/12/10 11:53:02;;;;;;;11.87;3.30;;;8.00;99.90;;;;;;5017921;28;20265;-55
2023/12/10 11:55:28;;;;;;;9.97;4.07;;;8.00;99.90;;;;;;5013978;28;20210;-55
2023/12/10 11:57:56;;;;;;;11.03;3.73;;;8.20;99.90;;;;;;5016100;28;20192;-54
2023/12/10 12:00:21;;;;;;;9.23;3.87;;;8.10;99.90;;;;;;5017719;28;20290;-57
2023/12/10 12:02:47;;;;;;;13.97;4.17;;;8.20;99.90;;;;;;5003408;28;20481;-55
2023/12/10 12:05:15;;;;;;;12.27;3.20;;;8.10;99.90;;;;;;5004729;28;20206;-55
2023/12/10 12:07:42;;;;;;;10.90;3.63;;;8.10;99.90;;;;;;5002228;28;20407;-55
2023/12/10 12:10:11;;;;;;;12.03;3.27;;;8.10;99.90;;;;;;5011910;28;20764;-54
2023/12/10 12:12:48;;;;;;;13.30;3.43;;;8.00;99.90;;;;;;4993474;28;20352;-54
2023/12/10 12:15:15;;;;;;;10.83;3.27;;;8.10;99.90;;;;;;5010862;28;20860;-54
2023/12/10 12:17:41;;;;;;;7.53;3.37;;;8.00;99.90;;;;;;5018662;28;20191;-55
2023/12/10 12:20:25;;;;;;;14.80;3.80;;;8.00;99.90;;;;;;5017101;28;20821;-54
2023/12/10 12:22:51;;;;;;;11.03;3.37;;;8.00;99.90;;;;;;5015507;28;20198;-55
2023/12/10 12:25:21;;;;;;;10.73;3.07;;;8.00;99.90;;;;;;5022926;28;20207;-55
2023/12/10 12:27:47;;;;;;;12.13;3.13;;;8.00;99.90;;;;;;5001859;28;20310;-55
2023/12/10 12:30:14;;;;;;;7.90;3.30;;;7.90;99.90;;;;;;5020494;28;20834;-55
2023/12/10 12:32:39;;;;;;;23.50;21.47;;;7.90;99.90;;;;;;5019639;28;20191;-55
2023/12/10 12:35:05;;;;;;;9.00;3.40;;;7.90;99.90;;;;;;5018761;28;20206;-64
2023/12/10 12:37:31;;;;;;;15.27;3.90;;;7.90;99.90;;;;;;5011751;28;20214;-55
2023/12/10 12:39:57;;;;;;;10.90;3.23;;;7.90;99.90;;;;;;4990972;28;20201;-54
2023/12/10 12:42:23;;;;;;;8.27;3.03;;;7.80;99.90;;;;;;5013523;28;20207;-56
2023/12/10 12:44:49;;;;;;;7.87;4.00;;;7.80;99.90;;;;;;5011587;28;20199;-55